createdAt,value
2023-04-16T04:27:21.057Z,100701.44
2023-04-16T04:29:47.557Z,100710.59
2023-04-16T04:32:14.014Z,100710.50
2023-04-16T04:54:11.858Z,100706.78
2023-04-16T06:02:35.025Z,100702.22
2023-04-16T06:05:01.829Z,100691.03
2023-04-16T06:07:28.436Z,100692.91
2023-04-16T06:09:54.777Z,100692.09
2023-04-16T06:12:21.417Z,100684.75
2023-04-16T06:14:47.930Z,100683.66
2023-04-16T06:17:14.455Z,100685.56
2023-04-16T06:19:41.000Z,100699.41
2023-04-16T06:22:07.487Z,100695.50
2023-04-16T06:39:26.852Z,100678.25
2023-04-16T06:41:53.417Z,100682.94
2023-04-16T06:44:19.879Z,100675.44
2023-04-16T06:46:46.538Z,100677.94
2023-04-16T06:49:13.054Z,100693.41
2023-04-16T06:51:39.775Z,100696.06
2023-04-16T07:06:19.279Z,100689.06
2023-04-16T07:08:45.797Z,100674.00
2023-04-16T07:11:12.307Z,100699.56
2023-04-16T07:13:38.758Z,100698.59
2023-04-16T07:16:05.526Z,100680.84
2023-04-16T07:18:32.190Z,100685.81
2023-04-16T08:19:34.925Z,100647.91
2023-04-16T08:44:07.680Z,100662.38
2023-04-16T08:46:37.169Z,100672.06
2023-04-16T08:49:07.149Z,100642.28
2023-04-16T08:51:35.436Z,100627.22
2023-04-16T08:54:09.093Z,100635.50
2023-04-16T08:56:37.334Z,100621.22
2023-04-16T08:59:04.474Z,100620.22
2023-04-16T09:03:59.998Z,100629.84
2023-04-16T09:06:27.970Z,100626.28
2023-04-16T09:08:55.853Z,100613.09
2023-04-16T09:11:22.423Z,100607.16
2023-04-16T09:13:48.904Z,100611.59
2023-04-16T09:16:15.621Z,100608.00
2023-04-16T09:18:42.358Z,100608.78
2023-04-16T09:21:12.865Z,100594.69
2023-04-16T09:23:40.361Z,100599.72
2023-04-16T09:26:06.956Z,100613.53
2023-04-16T09:31:09.860Z,100611.31
2023-04-16T09:33:36.491Z,100616.31
